Time;durP1;ratioP1;P1;durP2;ratioP2;P2;SDS_P1;SDS_P2;PMS_P1;PMS_P2;Temp;Humidity;BMP_temperature;BMP_pressure;BME280_temperature;BME280_humidity;BME280_pressure;Samples;Min_cycle;Max_cycle;Signal;HPM_P1;HPM_P2
2023/09/11 00:01:18;;;;;;;;;;;23.00;99.90;;;;;;5090941;28;19916;-71
2023/09/11 00:03:44;;;;;;;;;;;23.00;99.90;;;;;;5071881;28;20282;-71
2023/09/11 00:06:10;;;;;;;;;;;23.10;99.90;;;;;;5071671;28;20058;-72
2023/09/11 00:08:36;;;;;;;;;;;22.90;99.90;;;;;;5090074;28;19909;-71
2023/09/11 00:11:02;;;;;;;;;;;23.10;99.90;;;;;;5071868;28;19912;-70
2023/09/11 00:13:28;;;;;;;;;;;23.10;99.90;;;;;;5090160;28;19943;-72
2023/09/11 00:15:54;;;;;;;;;;;23.10;99.90;;;;;;5089891;28;19912;-71
2023/09/11 00:18:20;;;;;;;;;;;23.00;99.90;;;;;;5089731;28;19923;-71
2023/09/11 00:20:45;;;;;;;;;;;23.00;99.90;;;;;;5089970;28;20268;-71
2023/09/11 00:23:11;;;;;;;;;;;23.00;99.90;;;;;;5071380;28;19931;-71
2023/09/11 00:25:37;;;;;;;;;;;23.10;99.90;;;;;;5089822;28;19931;-71
2023/09/11 00:28:03;;;;;;;;;;;23.10;99.90;;;;;;5071929;28;19908;-71
2023/09/11 00:30:29;;;;;;;;;;;23.10;99.90;;;;;;5089772;28;19935;-71
2023/09/11 00:32:55;;;;;;;;;;;23.00;99.90;;;;;;5089727;28;19998;-71
2023/09/11 00:35:20;;;;;;;;;;;23.00;99.90;;;;;;5089861;28;19924;-71
2023/09/11 00:37:46;;;;;;;;;;;23.00;99.90;;;;;;5071135;28;19943;-72
2023/09/11 00:40:12;;;;;;;;;;;23.00;99.90;;;;;;5091828;28;20301;-71
2023/09/11 00:42:38;;;;;;;;;;;23.00;99.90;;;;;;5093490;28;19985;-71
2023/09/11 00:45:04;;;;;;;;;;;23.00;99.90;;;;;;5093447;28;20317;-71
2023/09/11 00:47:30;;;;;;;;;;;23.00;99.90;;;;;;5093063;28;19924;-70
2023/09/11 00:49:57;;;;;;;;;;;23.00;99.90;;;;;;5093306;28;19916;-71
2023/09/11 00:52:22;;;;;;;;;;;23.00;99.90;;;;;;5093340;28;20248;-71
2023/09/11 00:54:55;;;;;;;;;;;23.00;99.90;;;;;;5075020;28;19908;-70
2023/09/11 00:57:21;;;;;;;;;;;22.90;99.90;;;;;;5093270;28;19978;-70
2023/09/11 00:59:48;;;;;;;;;;;22.90;99.90;;;;;;5093251;28;19915;-71
2023/09/11 01:02:14;;;;;;;;;;;22.90;99.90;;;;;;5074788;28;19919;-71
2023/09/11 01:04:41;;;;;;;;;;;22.90;99.90;;;;;;5093196;28;19919;-71
2023/09/11 01:07:07;;;;;;;;;;;22.90;99.90;;;;;;5092883;28;19916;-70
2023/09/11 01:09:33;;;;;;;;;;;22.90;99.90;;;;;;5093043;28;19961;-72
2023/09/11 01:11:59;;;;;;;;;;;22.90;99.90;;;;;;5093114;28;20002;-71
2023/09/11 01:14:25;;;;;;;;;;;22.90;99.90;;;;;;5092797;28;19947;-71
2023/09/11 01:17:00;;;;;;;;;;;22.90;99.90;;;;;;5074268;28;19916;-71
2023/09/11 01:19:29;;;;;;;;;;;22.90;99.90;;;;;;5092861;28;19947;-71
2023/09/11 01:22:30;;;;;;;;;;;23.00;99.90;;;;;;5092796;28;20369;-70
2023/09/11 01:25:01;;;;;;;;;;;22.90;99.90;;;;;;5013483;28;19939;-71
2023/09/11 01:27:43;;;;;;;;;;;23.00;99.90;;;;;;5013799;28;19913;-71
2023/09/11 01:30:11;;;;;;;;;;;22.90;99.90;;;;;;5030495;28;19995;-70
2023/09/11 01:32:37;;;;;;;;;;;22.90;99.90;;;;;;5013148;28;19993;-71
2023/09/11 01:35:03;;;;;;;;;;;22.90;99.90;;;;;;5030158;28;20238;-70
2023/09/11 01:37:31;;;;;;;;;;;22.90;99.90;;;;;;5029733;28;19917;-71
2023/09/11 01:39:57;;;;;;;;;;;22.90;99.90;;;;;;5030152;28;19917;-71
2023/09/11 01:42:26;;;;;;;;;;;22.90;99.90;;;;;;5029955;28;20036;-71
2023/09/11 01:44:52;;;;;;;;;;;22.90;99.90;;;;;;5029733;28;20020;-71
2023/09/11 01:47:20;;;;;;;;;;;22.90;99.90;;;;;;5029711;28;20020;-71
2023/09/11 01:49:47;;;;;;;;;;;23.00;99.90;;;;;;5013004;28;19915;-71
2023/09/11 01:52:13;;;;;;;;;;;23.00;99.90;;;;;;5029128;28;20006;-71
2023/09/11 01:54:39;;;;;;;;;;;23.00;99.90;;;;;;5029732;28;19909;-71
2023/09/11 01:57:05;;;;;;;;;;;22.90;99.90;;;;;;5029650;28;20065;-71
2023/09/11 01:59:31;;;;;;;;;;;22.90;99.90;;;;;;5061736;28;20003;-70
2023/09/11 02:01:57;;;;;;;;;;;22.90;99.90;;;;;;5071613;28;19927;-71
2023/09/11 02:04:23;;;;;;;;;;;23.00;99.90;;;;;;5053437;28;20221;-71
2023/09/11 02:06:49;;;;;;;;;;;23.00;99.90;;;;;;5071576;28;20004;-71
2023/09/11 02:09:15;;;;;;;;;;;23.00;99.90;;;;;;5071624;28;19931;-71
2023/09/11 02:11:40;;;;;;;;;;;23.00;99.90;;;;;;5071376;28;19951;-71
2023/09/11 02:14:06;;;;;;;;;;;23.00;99.90;;;;;;5073525;28;20376;-71
2023/09/11 02:16:32;;;;;;;;;;;22.90;99.90;;;;;;5091286;28;19917;-71
2023/09/11 02:18:58;;;;;;;;;;;22.90;99.90;;;;;;5091602;28;20356;-71
2023/09/11 02:21:24;;;;;;;;;;;22.90;99.90;;;;;;5091516;28;19934;-70
2023/09/11 02:23:49;;;;;;;;;;;22.80;99.90;;;;;;5091809;28;20013;-71
2023/09/11 02:26:15;;;;;;;;;;;22.80;99.90;;;;;;5091386;28;19919;-71
2023/09/11 02:28:41;;;;;;;;;;;22.80;99.90;;;;;;5091423;28;19915;-70
2023/09/11 02:31:07;;;;;;;;;;;22.80;99.90;;;;;;5091514;28;19951;-71
2023/09/11 02:33:33;;;;;;;;;;;22.80;99.90;;;;;;5091267;28;19962;-71
2023/09/11 02:35:59;;;;;;;;;;;22.80;99.90;;;;;;5073231;28;20352;-71
2023/09/11 02:38:25;;;;;;;;;;;22.80;99.90;;;;;;5090803;28;20003;-71
2023/09/11 02:40:51;;;;;;;;;;;22.80;99.90;;;;;;5091065;28;19973;-71
2023/09/11 02:43:17;;;;;;;;;;;22.80;99.90;;;;;;5091035;28;20332;-70
2023/09/11 02:45:43;;;;;;;;;;;22.70;99.90;;;;;;5091462;28;19909;-71
2023/09/11 02:48:09;;;;;;;;;;;22.70;99.90;;;;;;5072579;28;20220;-71
2023/09/11 02:50:35;;;;;;;;;;;22.60;99.90;;;;;;5091200;28;20335;-71
2023/09/11 02:53:01;;;;;;;;;;;22.60;99.90;;;;;;5072507;28;19908;-70
2023/09/11 02:55:27;;;;;;;;;;;22.50;99.90;;;;;;5091100;28;19908;-71
2023/09/11 02:57:53;;;;;;;;;;;22.40;99.90;;;;;;5073094;28;19916;-71
2023/09/11 03:00:18;;;;;;;;;;;22.50;99.90;;;;;;5091479;28;19953;-71
2023/09/11 03:02:46;;;;;;;;;;;22.40;99.90;;;;;;5090495;28;20329;-71
2023/09/11 03:05:11;;;;;;;;;;;22.50;99.90;;;;;;5091325;28;20012;-70
2023/09/11 03:07:37;;;;;;;;;;;22.40;99.90;;;;;;5091636;28;20356;-71
2023/09/11 03:10:03;;;;;;;;;;;22.50;99.90;;;;;;5090907;28;19926;-71
2023/09/11 03:12:29;;;;;;;;;;;22.50;99.90;;;;;;5091328;28;19946;-70
2023/09/11 03:15:03;;;;;;;;;;;22.50;99.90;;;;;;5091360;28;19943;-70
2023/09/11 03:17:30;;;;;;;;;;;22.50;99.90;;;;;;5072479;28;20238;-71
2023/09/11 03:19:56;;;;;;;;;;;22.60;99.90;;;;;;5091109;28;20010;-71
2023/09/11 03:22:22;;;;;;;;;;;22.70;99.90;;;;;;5072614;28;20014;-71
2023/09/11 03:24:48;;;;;;;;;;;22.60;99.90;;;;;;5092057;28;20394;-71
2023/09/11 03:27:14;;;;;;;;;;;22.70;99.90;;;;;;5073783;28;19912;-70
2023/09/11 03:29:40;;;;;;;;;;;22.70;99.90;;;;;;5092094;28;19908;-70
2023/09/11 03:32:06;;;;;;;;;;;22.60;99.90;;;;;;5092133;28;20073;-70
2023/09/11 03:34:32;;;;;;;;;;;22.60;99.90;;;;;;5092093;28;19908;-70
2023/09/11 03:36:58;;;;;;;;;;;22.50;99.90;;;;;;5091853;28;19924;-70
2023/09/11 03:39:24;;;;;;;;;;;22.50;99.90;;;;;;5091809;28;19920;-70
2023/09/11 03:41:49;;;;;;;;;;;22.50;99.90;;;;;;5092281;28;19931;-70
2023/09/11 03:44:15;;;;;;;;;;;22.60;99.90;;;;;;5091773;28;19912;-70
2023/09/11 03:46:41;;;;;;;;;;;22.60;99.90;;;;;;5091751;28;20352;-71
2023/09/11 03:49:07;;;;;;;;;;;22.60;99.90;;;;;;5092093;28;19909;-70
2023/09/11 03:51:33;;;;;;;;;;;22.70;99.90;;;;;;5073582;28;20055;-70
2023/09/11 03:53:59;;;;;;;;;;;22.50;99.90;;;;;;5092226;28;19908;-70
2023/09/11 03:56:24;;;;;;;;;;;22.50;99.90;;;;;;5091653;28;19912;-70
2023/09/11 03:58:50;;;;;;;;;;;22.50;99.90;;;;;;5073490;28;20007;-70
2023/09/11 04:01:16;;;;;;;;;;;22.60;99.90;;;;;;5091696;28;19908;-70
2023/09/11 04:03:42;;;;;;;;;;;22.60;99.90;;;;;;5073152;28;19922;-70
2023/09/11 04:06:08;;;;;;;;;;;22.60;99.90;;;;;;5091747;28;19990;-70
2023/09/11 04:08:34;;;;;;;;;;;22.60;99.90;;;;;;5091462;28;19912;-70
2023/09/11 04:11:01;;;;;;;;;;;22.50;99.90;;;;;;5091582;28;19915;-70
2023/09/11 04:13:27;;;;;;;;;;;22.60;99.90;;;;;;5073282;28;19916;-70
2023/09/11 04:15:52;;;;;;;;;;;22.60;99.90;;;;;;5095123;28;19908;-70
2023/09/11 04:18:18;;;;;;;;;;;22.60;99.90;;;;;;5096123;28;19947;-71
2023/09/11 04:20:45;;;;;;;;;;;22.60;99.90;;;;;;5078201;28;19912;-71
2023/09/11 04:23:11;;;;;;;;;;;22.50;99.90;;;;;;5096359;28;19915;-70
2023/09/11 04:25:37;;;;;;;;;;;22.50;99.90;;;;;;5096328;28;20276;-70
2023/09/11 04:28:03;;;;;;;;;;;22.40;99.90;;;;;;5096480;28;20360;-70
2023/09/11 04:30:29;;;;;;;;;;;22.40;99.90;;;;;;5096257;28;19908;-70
2023/09/11 04:32:54;;;;;;;;;;;22.40;99.90;;;;;;5096057;28;19913;-71
2023/09/11 04:35:20;;;;;;;;;;;22.40;99.90;;;;;;5096429;28;20329;-71
2023/09/11 04:37:46;;;;;;;;;;;22.40;99.90;;;;;;5095770;28;19966;-71
2023/09/11 04:40:12;;;;;;;;;;;22.40;99.90;;;;;;5096539;28;20354;-71
2023/09/11 04:42:38;;;;;;;;;;;22.40;99.90;;;;;;5096064;28;19914;-70
2023/09/11 04:45:04;;;;;;;;;;;22.40;99.90;;;;;;5077564;28;19908;-70
2023/09/11 04:47:31;;;;;;;;;;;22.40;99.90;;;;;;5077394;28;19908;-71
2023/09/11 04:49:57;;;;;;;;;;;22.40;99.90;;;;;;5095952;28;19915;-71
2023/09/11 04:52:23;;;;;;;;;;;22.50;99.90;;;;;;5095788;28;19909;-70
2023/09/11 04:54:49;;;;;;;;;;;22.40;99.90;;;;;;5077577;28;20280;-71
2023/09/11 04:57:15;;;;;;;;;;;22.40;99.90;;;;;;5096148;28;20252;-70
2023/09/11 04:59:42;;;;;;;;;;;22.40;99.90;;;;;;5095668;28;19940;-70
2023/09/11 05:02:09;;;;;;;;;;;22.30;99.90;;;;;;5095500;28;19933;-70
2023/09/11 05:04:35;;;;;;;;;;;22.30;99.90;;;;;;5095696;28;19912;-70
2023/09/11 05:07:01;;;;;;;;;;;22.30;99.90;;;;;;5076812;28;20388;-70
2023/09/11 05:09:27;;;;;;;;;;;22.30;99.90;;;;;;5095360;28;19942;-70
2023/09/11 05:11:52;;;;;;;;;;;22.30;99.90;;;;;;5094964;28;20272;-70
2023/09/11 05:14:18;;;;;;;;;;;22.40;99.90;;;;;;5094898;28;19908;-71
2023/09/11 05:16:44;;;;;;;;;;;22.50;99.90;;;;;;5094680;28;19974;-71
2023/09/11 05:19:10;;;;;;;;;;;22.40;99.90;;;;;;5077442;28;20353;-71
2023/09/11 05:21:37;;;;;;;;;;;22.50;99.90;;;;;;5077500;28;19915;-70
2023/09/11 05:24:03;;;;;;;;;;;22.50;99.90;;;;;;5077402;28;19931;-73
2023/09/11 05:26:30;;;;;;;;;;;22.50;99.90;;;;;;5094765;28;19908;-71
2023/09/11 05:28:55;;;;;;;;;;;22.40;99.90;;;;;;5094974;28;19919;-70
2023/09/11 05:31:21;;;;;;;;;;;22.70;99.90;;;;;;5095034;28;19916;-70
2023/09/11 05:33:47;;;;;;;;;;;23.20;99.90;;;;;;5094825;28;20351;-72
2023/09/11 05:36:13;;;;;;;;;;;24.00;99.90;;;;;;5094826;28;19908;-71
2023/09/11 05:38:39;;;;;;;;;;;24.40;99.90;;;;;;5094511;28;19920;-72
2023/09/11 05:41:04;;;;;;;;;;;25.00;99.90;;;;;;5094878;28;19912;-70
2023/09/11 05:43:30;;;;;;;;;;;25.30;99.90;;;;;;5094714;28;19908;-71
2023/09/11 05:45:56;;;;;;;;;;;25.70;99.90;;;;;;5094149;28;20400;-73
2023/09/11 05:48:22;;;;;;;;;;;26.10;99.90;;;;;;5094613;28;19908;-72
2023/09/11 05:50:48;;;;;;;;;;;26.60;99.90;;;;;;5094205;28;19960;-72
2023/09/11 05:53:14;;;;;;;;;;;26.60;99.90;;;;;;5094401;28;20252;-72
2023/09/11 05:55:40;;;;;;;;;;;26.90;99.90;;;;;;5075461;28;19914;-72
2023/09/11 05:58:05;;;;;;;;;;;27.20;99.90;;;;;;5093613;28;19916;-72
2023/09/11 06:00:31;;;;;;;;;;;27.40;99.90;;;;;;5075524;28;19908;-72
2023/09/11 06:02:57;;;;;;;;;;;27.20;99.90;;;;;;5093586;28;19916;-72
2023/09/11 06:05:25;;;;;;;;;;;27.60;99.90;;;;;;5094046;28;19911;-72
2023/09/11 06:07:51;;;;;;;;;;;28.10;99.90;;;;;;5094152;28;19912;-73
2023/09/11 06:10:17;;;;;;;;;;;28.50;99.90;;;;;;5094261;28;19957;-73
2023/09/11 06:12:43;;;;;;;;;;;28.80;99.90;;;;;;5093728;28;20007;-72
2023/09/11 06:15:09;;;;;;;;;;;28.60;99.90;;;;;;5093951;28;19908;-72
2023/09/11 06:17:35;;;;;;;;;;;28.50;99.90;;;;;;5093929;28;19920;-72
2023/09/11 06:20:09;;;;;;;;;;;28.20;99.90;;;;;;5075960;28;19908;-72
2023/09/11 06:22:38;;;;;;;;;;;28.60;99.90;;;;;;5094583;28;20007;-73
2023/09/11 06:25:04;;;;;;;;;;;28.60;99.90;;;;;;5075751;28;20427;-72
2023/09/11 06:27:30;;;;;;;;;;;29.00;99.90;;;;;;5075859;28;19909;-73
2023/09/11 06:29:56;;;;;;;;;;;29.70;99.90;;;;;;5094299;28;19958;-73
2023/09/11 06:32:22;;;;;;;;;;;30.50;99.90;;;;;;5093806;28;19947;-72
2023/09/11 06:34:48;;;;;;;;;;;30.40;99.90;;;;;;5094016;28;20336;-71
2023/09/11 06:37:14;;;;;;;;;;;31.00;99.90;;;;;;5075199;28;19916;-71
2023/09/11 06:39:39;;;;;;;;;;;31.50;99.90;;;;;;5093804;28;19955;-72
2023/09/11 06:42:05;;;;;;;;;;;31.60;99.90;;;;;;5093840;28;20014;-71
2023/09/11 06:44:31;;;;;;;;;;;31.20;99.90;;;;;;5093545;28;19930;-71
2023/09/11 06:46:57;;;;;;;;;;;30.90;99.90;;;;;;5074783;28;19915;-72
2023/09/11 06:49:23;;;;;;;;;;;32.20;99.90;;;;;;5093212;28;20002;-72
2023/09/11 06:51:48;;;;;;;;;;;32.60;99.90;;;;;;5092928;28;19912;-72
2023/09/11 06:54:14;;;;;;;;;;;32.70;99.90;;;;;;5074917;28;19908;-72
2023/09/11 06:56:41;;;;;;;;;;;32.30;99.90;;;;;;5093050;28;19912;-72
2023/09/11 06:59:06;;;;;;;;;;;32.60;99.90;;;;;;5093379;28;19912;-71
2023/09/11 07:01:38;;;;;;;;;;;32.60;99.90;;;;;;5093468;28;19908;-71
2023/09/11 07:04:11;;;;;;;;;;;32.80;99.90;;;;;;5093207;28;19912;-71
2023/09/11 07:06:37;;;;;;;;;;;33.10;99.90;;;;;;5093358;28;20282;-71
2023/09/11 07:09:04;;;;;;;;;;;32.90;99.90;;;;;;5093356;28;19966;-72
2023/09/11 07:11:30;;;;;;;;;;;33.20;99.90;;;;;;5093706;28;19915;-71
2023/09/11 07:13:56;;;;;;;;;;;33.10;99.90;;;;;;5093663;28;20003;-72
2023/09/11 07:16:22;;;;;;;;;;;33.20;99.90;;;;;;5075252;28;19915;-72
2023/09/11 07:18:48;;;;;;;;;;;33.80;99.90;;;;;;5093646;28;19919;-72
2023/09/11 07:21:14;;;;;;;;;;;33.90;99.90;;;;;;5075480;28;19908;-72
2023/09/11 07:23:39;;;;;;;;;;;34.00;99.90;;;;;;5093761;28;20272;-72
2023/09/11 07:26:05;;;;;;;;;;;34.20;99.90;;;;;;5093578;28;19916;-72
2023/09/11 07:28:33;;;;;;;;;;;34.60;99.80;;;;;;5093441;28;19998;-73
2023/09/11 07:30:58;;;;;;;;;;;33.60;99.30;;;;;;5093597;28;19986;-72
2023/09/11 07:33:24;;;;;;;;;;;32.30;99.90;;;;;;5093286;28;19908;-72
2023/09/11 07:35:50;;;;;;;;;;;32.10;99.90;;;;;;5093949;28;19915;-72
2023/09/11 07:38:16;;;;;;;;;;;31.30;99.90;;;;;;5093306;28;19968;-72
2023/09/11 07:40:42;;;;;;;;;;;30.60;99.90;;;;;;5093851;28;20381;-73
2023/09/11 07:43:08;;;;;;;;;;;30.70;99.90;;;;;;5093474;28;19908;-72
2023/09/11 07:45:34;;;;;;;;;;;30.10;99.90;;;;;;5093047;28;20378;-72
2023/09/11 07:48:00;;;;;;;;;;;29.70;99.90;;;;;;5091932;28;19908;-72
2023/09/11 07:50:26;;;;;;;;;;;30.00;99.90;;;;;;5091902;28;19953;-72
2023/09/11 07:52:52;;;;;;;;;;;30.50;99.90;;;;;;5092138;28;20268;-72
2023/09/11 07:55:18;;;;;;;;;;;30.80;99.90;;;;;;5091853;28;20272;-71
2023/09/11 07:57:43;;;;;;;;;;;31.20;99.90;;;;;;5092231;28;19917;-72
2023/09/11 08:00:09;;;;;;;;;;;31.80;99.90;;;;;;5091900;28;19908;-71
2023/09/11 08:02:36;;;;;;;;;;;32.10;99.90;;;;;;5091495;28;20340;-71
2023/09/11 08:05:01;;;;;;;;;;;32.50;99.90;;;;;;5091709;28;20045;-72
2023/09/11 08:07:27;;;;;;;;;;;32.90;99.90;;;;;;5091801;28;19908;-72
2023/09/11 08:09:53;;;;;;;;;;;32.70;99.90;;;;;;5073358;28;20375;-72
2023/09/11 08:12:19;;;;;;;;;;;32.60;99.90;;;;;;5091839;28;19915;-72
2023/09/11 08:14:45;;;;;;;;;;;32.90;99.90;;;;;;5091727;28;19912;-72
2023/09/11 08:17:11;;;;;;;;;;;32.90;99.90;;;;;;5092722;28;19922;-71
2023/09/11 08:19:37;;;;;;;;;;;33.10;99.90;;;;;;5093025;28;19908;-73
2023/09/11 08:22:03;;;;;;;;;;;33.20;99.90;;;;;;5092943;28;19915;-72
2023/09/11 08:24:29;;;;;;;;;;;33.40;99.90;;;;;;5074587;28;19908;-71
2023/09/11 08:26:55;;;;;;;;;;;33.10;99.90;;;;;;5092924;28;19999;-72
2023/09/11 08:29:21;;;;;;;;;;;32.80;99.90;;;;;;5092992;28;19908;-74
2023/09/11 08:31:47;;;;;;;;;;;33.10;99.90;;;;;;5093220;28;19908;-72
2023/09/11 08:34:13;;;;;;;;;;;33.30;99.90;;;;;;5092879;28;19916;-73
2023/09/11 08:36:39;;;;;;;;;;;33.60;99.90;;;;;;5058625;28;19914;-72
2023/09/11 08:39:05;;;;;;;;;;;33.40;99.90;;;;;;5092847;28;19931;-71
2023/09/11 08:41:31;;;;;;;;;;;33.30;99.90;;;;;;5074615;28;19908;-72
2023/09/11 08:43:57;;;;;;;;;;;32.90;99.90;;;;;;5092551;28;20011;-72
2023/09/11 08:46:23;;;;;;;;;;;32.90;99.90;;;;;;5092563;28;19915;-72
2023/09/11 08:48:58;;;;;;;;;;;33.10;99.90;;;;;;5092159;28;19908;-72
2023/09/11 08:51:33;;;;;;;;;;;33.30;99.90;;;;;;5092722;28;19952;-73
2023/09/11 08:54:01;;;;;;;;;;;33.20;99.90;;;;;;5092133;28;20270;-72
2023/09/11 08:56:27;;;;;;;;;;;33.00;99.90;;;;;;5091999;28;19909;-72
2023/09/11 08:58:53;;;;;;;;;;;33.10;99.90;;;;;;5074008;28;19919;-73
2023/09/11 09:01:20;;;;;;;;;;;33.00;99.90;;;;;;5093165;28;19908;-72
2023/09/11 09:03:46;;;;;;;;;;;33.00;99.90;;;;;;5095360;28;19912;-72
2023/09/11 09:06:12;;;;;;;;;;;33.10;99.90;;;;;;5094822;28;19919;-71
2023/09/11 09:08:38;;;;;;;;;;;32.70;99.90;;;;;;5094904;28;19908;-71
2023/09/11 09:11:04;;;;;;;;;;;32.30;99.90;;;;;;5095013;28;20006;-72
2023/09/11 09:13:35;;;;;;;;;;;32.20;99.90;;;;;;5095095;28;19908;-72
2023/09/11 09:16:00;;;;;;;;;;;32.20;99.90;;;;;;5094521;28;19908;-72
2023/09/11 09:18:26;;;;;;;;;;;32.00;99.90;;;;;;5076426;28;19965;-72
2023/09/11 09:20:52;;;;;;;;;;;31.70;99.90;;;;;;5094791;28;20328;-72
2023/09/11 09:23:18;;;;;;;;;;;31.70;99.90;;;;;;5094758;28;19908;-72
2023/09/11 09:25:44;;;;;;;;;;;31.40;99.90;;;;;;5094776;28;19915;-72
2023/09/11 09:28:25;;;;;;;;;;;31.40;99.90;;;;;;5095275;28;19908;-72
2023/09/11 09:30:54;;;;;;;;;;;31.70;99.90;;;;;;5095249;28;19908;-71
2023/09/11 09:33:20;;;;;;;;;;;31.80;99.90;;;;;;5094843;28;19916;-72
2023/09/11 09:35:46;;;;;;;;;;;31.80;99.90;;;;;;5095717;28;19908;-73
2023/09/11 09:38:13;;;;;;;;;;;31.80;99.90;;;;;;5095147;28;19920;-72
2023/09/11 09:40:39;;;;;;;;;;;31.80;99.90;;;;;;5095696;28;19915;-72
2023/09/11 09:43:06;;;;;;;;;;;31.60;99.90;;;;;;5094845;28;19912;-72
2023/09/11 09:45:42;;;;;;;;;;;31.70;99.90;;;;;;5095121;28;19915;-71
2023/09/11 09:48:07;;;;;;;;;;;31.90;99.90;;;;;;5076422;28;20320;-72
2023/09/11 09:50:46;;;;;;;;;;;31.90;99.90;;;;;;5095005;28;20007;-72
2023/09/11 09:53:25;;;;;;;;;;;31.60;99.90;;;;;;5094998;28;19991;-72
2023/09/11 09:55:51;;;;;;;;;;;31.50;99.90;;;;;;5095027;28;19914;-72
2023/09/11 09:58:24;;;;;;;;;;;31.40;99.90;;;;;;5094673;28;19946;-71
2023/09/11 10:00:56;;;;;;;;;;;31.40;99.90;;;;;;5094826;28;20341;-72
2023/09/11 10:03:22;;;;;;;;;;;31.20;99.90;;;;;;5094648;28;19908;-72
2023/09/11 10:05:49;;;;;;;;;;;31.30;99.90;;;;;;5094917;28;20014;-72
2023/09/11 10:08:15;;;;;;;;;;;31.20;99.90;;;;;;5094532;28;19908;-72
2023/09/11 10:10:41;;;;;;;;;;;31.20;99.90;;;;;;5094700;28;19934;-72
2023/09/11 10:13:09;;;;;;;;;;;31.20;99.90;;;;;;5094547;28;19916;-72
2023/09/11 10:15:36;;;;;;;;;;;31.50;99.90;;;;;;5094645;28;20340;-72
2023/09/11 10:18:02;;;;;;;;;;;31.50;99.90;;;;;;5076165;28;20226;-72
2023/09/11 10:20:28;;;;;;;;;;;31.20;99.90;;;;;;5094661;28;19915;-72
2023/09/11 10:22:58;;;;;;;;;;;31.20;99.90;;;;;;5094510;28;19908;-72
2023/09/11 10:25:26;;;;;;;;;;;31.30;99.90;;;;;;5094410;28;19931;-72
2023/09/11 10:28:05;;;;;;;;;;;31.50;99.90;;;;;;5094406;28;20306;-71
2023/09/11 10:30:54;;;;;;;;;;;31.30;99.90;;;;;;5094951;28;19908;-72
2023/09/11 10:33:21;;;;;;;;;;;31.10;99.90;;;;;;5086143;28;19950;-72
2023/09/11 10:35:48;;;;;;;;;;;31.40;99.90;;;;;;5094186;28;20003;-72
2023/09/11 10:38:16;;;;;;;;;;;31.30;99.90;;;;;;5094052;28;19926;-71
2023/09/11 10:40:42;;;;;;;;;;;31.20;99.90;;;;;;5094247;28;19918;-72
2023/09/11 10:43:08;;;;;;;;;;;31.10;99.90;;;;;;5094029;28;19908;-72
2023/09/11 10:45:34;;;;;;;;;;;31.10;99.90;;;;;;5094387;28;19908;-72
2023/09/11 10:48:01;;;;;;;;;;;30.90;99.90;;;;;;5092568;28;19919;-72
2023/09/11 10:50:32;;;;;;;;;;;31.00;99.90;;;;;;5093166;28;19947;-72
2023/09/11 10:52:57;;;;;;;;;;;30.90;99.90;;;;;;5074906;28;19915;-72
2023/09/11 10:55:24;;;;;;;;;;;31.20;99.90;;;;;;5074380;28;19908;-71
2023/09/11 10:57:56;;;;;;;;;;;31.30;99.90;;;;;;5092806;28;19916;-72
2023/09/11 11:00:22;;;;;;;;;;;31.30;99.90;;;;;;5092560;28;19908;-73
2023/09/11 11:02:49;;;;;;;;;;;30.90;99.90;;;;;;5092754;28;20232;-72
2023/09/11 11:05:15;;;;;;;;;;;30.90;99.90;;;;;;5074473;28;19959;-72
2023/09/11 11:07:41;;;;;;;;;;;31.00;99.90;;;;;;5093296;28;20432;-72
2023/09/11 11:10:12;;;;;;;;;;;31.00;99.90;;;;;;5092999;28;19965;-72
2023/09/11 11:12:40;;;;;;;;;;;31.10;99.90;;;;;;5093182;28;19912;-71
2023/09/11 11:15:19;;;;;;;;;;;31.30;99.90;;;;;;5092729;28;19919;-72
2023/09/11 11:17:45;;;;;;;;;;;31.00;99.90;;;;;;5093081;28;19916;-72
2023/09/11 11:20:16;;;;;;;;;;;31.00;99.90;;;;;;5094002;28;19915;-72
2023/09/11 11:22:42;;;;;;;;;;;31.10;99.90;;;;;;5093603;28;20315;-71
2023/09/11 11:25:11;;;;;;;;;;;31.00;99.90;;;;;;5092921;28;19912;-72
2023/09/11 11:27:41;;;;;;;;;;;30.90;99.90;;;;;;5092922;28;19908;-72
2023/09/11 11:30:07;;;;;;;;;;;31.10;99.90;;;;;;5093153;28;19908;-72
2023/09/11 11:32:34;;;;;;;;;;;30.90;99.90;;;;;;5093270;28;19991;-71
2023/09/11 11:35:02;;;;;;;;;;;30.80;99.90;;;;;;5093365;28;19912;-72
2023/09/11 11:37:30;;;;;;;;;;;30.80;99.90;;;;;;5093368;28;19962;-72
2023/09/11 11:39:56;;;;;;;;;;;30.80;99.90;;;;;;5093128;28;20023;-72
2023/09/11 11:42:22;;;;;;;;;;;30.50;99.90;;;;;;5093014;28;19928;-71
2023/09/11 11:44:48;;;;;;;;;;;30.40;99.90;;;;;;5093002;28;19908;-72
2023/09/11 11:47:14;;;;;;;;;;;30.20;99.90;;;;;;5093366;28;19908;-71
2023/09/11 11:49:40;;;;;;;;;;;30.30;99.90;;;;;;5074859;28;19908;-71
2023/09/11 11:52:06;;;;;;;;;;;30.50;99.90;;;;;;5092661;28;19944;-72
2023/09/11 11:54:32;;;;;;;;;;;30.80;99.90;;;;;;5092756;28;19996;-72
2023/09/11 11:57:03;;;;;;;;;;;30.90;99.90;;;;;;5092275;28;19938;-72
2023/09/11 11:59:32;;;;;;;;;;;30.60;99.90;;;;;;5074401;28;19913;-72
2023/09/11 12:01:58;;;;;;;;;;;30.60;99.90;;;;;;5092458;28;20387;-72
2023/09/11 12:04:24;;;;;;;;;;;30.60;99.90;;;;;;5092105;28;19910;-71
2023/09/11 12:06:54;;;;;;;;;;;30.80;99.90;;;;;;5092633;28;19908;-71
2023/09/11 12:09:20;;;;;;;;;;;30.90;99.90;;;;;;5092494;28;19913;-72
2023/09/11 12:11:46;;;;;;;;;;;31.10;99.90;;;;;;5092825;28;19998;-71
2023/09/11 12:14:13;;;;;;;;;;;31.10;99.90;;;;;;5092207;28;20021;-71
2023/09/11 12:16:39;;;;;;;;;;;31.00;99.90;;;;;;5074924;28;19912;-71
2023/09/11 12:19:06;;;;;;;;;;;31.00;99.90;;;;;;5092515;28;19912;-71
2023/09/11 12:21:32;;;;;;;;;;;31.20;99.90;;;;;;5074829;28;19910;-71
2023/09/11 12:24:00;;;;;;;;;;;31.20;99.90;;;;;;5093290;28;20344;-72
2023/09/11 12:26:27;;;;;;;;;;;31.30;99.90;;;;;;5092888;28;19912;-71
2023/09/11 12:28:53;;;;;;;;;;;31.40;99.90;;;;;;5092854;28;19908;-71
2023/09/11 12:31:19;;;;;;;;;;;31.20;99.90;;;;;;5092755;28;19916;-71
2023/09/11 12:33:51;;;;;;;;;;;31.30;99.90;;;;;;5092776;28;19908;-72
2023/09/11 12:36:20;;;;;;;;;;;31.40;99.90;;;;;;5095872;28;19915;-71
2023/09/11 12:38:46;;;;;;;;;;;31.30;99.90;;;;;;5096238;28;19978;-72
2023/09/11 12:41:12;;;;;;;;;;;31.20;99.90;;;;;;5096687;28;20021;-71
2023/09/11 12:43:38;;;;;;;;;;;31.30;99.90;;;;;;5096615;28;19908;-72
2023/09/11 12:46:04;;;;;;;;;;;31.40;99.90;;;;;;5096602;28;20368;-71
2023/09/11 12:48:30;;;;;;;;;;;31.30;99.90;;;;;;5095957;28;19912;-72
2023/09/11 12:50:55;;;;;;;;;;;31.00;99.90;;;;;;5077510;28;19958;-71
2023/09/11 12:53:21;;;;;;;;;;;30.90;99.90;;;;;;5096145;28;19915;-73
2023/09/11 12:55:48;;;;;;;;;;;31.10;99.90;;;;;;5077443;28;19924;-72
2023/09/11 12:58:16;;;;;;;;;;;31.20;99.90;;;;;;5095519;28;19916;-72
2023/09/11 13:00:46;;;;;;;;;;;31.50;99.90;;;;;;5095762;28;19908;-72
2023/09/11 13:03:12;;;;;;;;;;;31.30;99.90;;;;;;5095196;28;19969;-71
2023/09/11 13:05:37;;;;;;;;;;;31.30;99.90;;;;;;5095540;28;20310;-71
2023/09/11 13:08:03;;;;;;;;;;;31.50;99.90;;;;;;5095710;28;20409;-71
2023/09/11 13:10:31;;;;;;;;;;;31.40;99.90;;;;;;5095413;28;20006;-72
2023/09/11 13:12:56;;;;;;;;;;;31.00;99.90;;;;;;5095985;28;19919;-71
2023/09/11 13:15:22;;;;;;;;;;;31.50;99.90;;;;;;5095269;28;19908;-72
2023/09/11 13:17:48;;;;;;;;;;;31.50;99.90;;;;;;5077216;28;19927;-71
2023/09/11 13:20:14;;;;;;;;;;;31.50;99.90;;;;;;5095998;28;19943;-71
2023/09/11 13:22:40;;;;;;;;;;;31.30;99.90;;;;;;5096099;28;19914;-70
2023/09/11 13:25:06;;;;;;;;;;;31.20;99.90;;;;;;5077689;28;19920;-71
2023/09/11 13:27:32;;;;;;;;;;;31.40;99.90;;;;;;5095828;28;19908;-72
2023/09/11 13:29:58;;;;;;;;;;;31.10;99.90;;;;;;5095851;28;19908;-72
2023/09/11 13:32:24;;;;;;;;;;;30.90;99.90;;;;;;5077481;28;20372;-71
2023/09/11 13:34:50;;;;;;;;;;;31.00;99.90;;;;;;5095819;28;20268;-72
2023/09/11 13:37:16;;;;;;;;;;;31.10;99.90;;;;;;5095491;28;19923;-73
2023/09/11 13:39:42;;;;;;;;;;;31.20;99.90;;;;;;5095895;28;19912;-71
2023/09/11 13:42:08;;;;;;;;;;;31.20;99.90;;;;;;5095559;28;19912;-71
2023/09/11 13:44:34;;;;;;;;;;;31.20;99.90;;;;;;5095295;28;20043;-72
2023/09/11 13:47:00;;;;;;;;;;;31.20;99.90;;;;;;5095015;28;19922;-71
2023/09/11 13:49:26;;;;;;;;;;;31.30;99.90;;;;;;5095154;28;19908;-72
2023/09/11 13:51:54;;;;;;;;;;;31.30;99.90;;;;;;5076542;28;20402;-73
2023/09/11 13:54:21;;;;;;;;;;;31.10;99.90;;;;;;5076679;28;19908;-71
2023/09/11 13:56:47;;;;;;;;;;;31.20;99.90;;;;;;5094951;28;20414;-71
2023/09/11 13:59:13;;;;;;;;;;;31.20;99.90;;;;;;5095068;28;19999;-71
2023/09/11 14:01:38;;;;;;;;;;;31.00;99.90;;;;;;5094807;28;20036;-71
2023/09/11 14:04:05;;;;;;;;;;;30.90;99.90;;;;;;5094569;28;19915;-72
2023/09/11 14:06:31;;;;;;;;;;;30.60;99.90;;;;;;5094620;28;19914;-72
2023/09/11 14:08:56;;;;;;;;;;;30.60;99.90;;;;;;5094646;28;19912;-72
2023/09/11 14:11:22;;;;;;;;;;;30.80;99.90;;;;;;5095064;28;19908;-71
2023/09/11 14:13:48;;;;;;;;;;;30.80;99.90;;;;;;5094564;28;20241;-72